Time;durP1;ratioP1;P1;durP2;ratioP2;P2;SDS_P1;SDS_P2;PMS_P1;PMS_P2;Temp;Humidity;BMP_temperature;BMP_pressure;BME280_temperature;BME280_humidity;BME280_pressure;Samples;Min_cycle;Max_cycle;Signal;HPM_P1;HPM_P2
2022/01/06 00:02:21;;;;;;;5.75;2.53;;;21.20;69.80;;;;;;7838000;28;20213;-56
2022/01/06 00:06:09;;;;;;;4.13;2.13;;;21.20;69.70;;;;;;7839264;28;20289;-56
2022/01/06 00:09:54;;;;;;;3.10;2.38;;;21.20;69.70;;;;;;7847448;28;20201;-55
2022/01/06 00:14:04;;;;;;;5.13;2.40;;;21.10;69.80;;;;;;7848013;28;20178;-56
2022/01/06 00:25:50;;;;;;;5.13;1.80;;;21.10;70.00;;;;;;7847992;28;20613;-57
2022/01/06 00:29:35;;;;;;;4.97;2.05;;;21.00;70.00;;;;;;7847196;28;20201;-52
2022/01/06 00:33:21;;;;;;;3.45;1.70;;;21.00;69.90;;;;;;7847897;28;20178;-51
2022/01/06 00:37:08;;;;;;;3.58;2.13;;;21.00;69.90;;;;;;7847638;28;20259;-54
2022/01/06 00:40:54;;;;;;;3.08;1.70;;;21.00;69.80;;;;;;7847026;28;20640;-54
2022/01/06 00:44:39;;;;;;;2.72;1.70;;;21.00;69.70;;;;;;7847819;28;20170;-53
2022/01/06 00:48:25;;;;;;;2.83;1.70;;;20.90;69.70;;;;;;7846858;28;20193;-55
2022/01/06 00:52:10;;;;;;;2.05;1.58;;;20.90;69.80;;;;;;7847657;28;20584;-54
2022/01/06 00:55:56;;;;;;;3.33;1.50;;;20.90;69.90;;;;;;7847600;28;20224;-51
2022/01/06 00:59:41;;;;;;;2.40;1.50;;;20.90;69.90;;;;;;7846857;28;20239;-54
2022/01/06 01:03:27;;;;;;;2.33;1.60;;;20.90;69.80;;;;;;7847632;28;20200;-51
2022/01/06 01:07:13;;;;;;;2.50;1.55;;;20.80;69.80;;;;;;7847574;28;20248;-51
2022/01/06 01:10:59;;;;;;;2.28;1.55;;;20.80;69.80;;;;;;7846795;28;20259;-52
2022/01/06 01:14:53;;;;;;;2.28;1.50;;;20.90;69.90;;;;;;7847391;28;20182;-51
2022/01/06 01:18:45;;;;;;;3.33;1.45;;;20.80;69.90;;;;;;7825154;28;20746;-51
2022/01/06 01:22:30;;;;;;;1.40;1.10;;;20.80;70.00;;;;;;7842262;28;20213;-52
2022/01/06 01:26:16;;;;;;;1.98;1.52;;;20.80;70.10;;;;;;7842146;28;20194;-55
2022/01/06 01:30:08;;;;;;;3.00;1.35;;;20.80;70.20;;;;;;7839460;28;20179;-55
2022/01/06 01:33:57;;;;;;;1.85;1.25;;;20.80;70.00;;;;;;7842206;28;20205;-53
2022/01/06 01:37:43;;;;;;;1.60;1.30;;;20.80;70.10;;;;;;7840942;28;20201;-52
2022/01/06 01:41:29;;;;;;;1.90;1.40;;;20.80;70.10;;;;;;7841674;28;20210;-54
2022/01/06 01:45:16;;;;;;;2.45;1.30;;;20.90;70.10;;;;;;7841626;28;20170;-52
2022/01/06 01:49:16;;;;;;;1.50;1.15;;;20.90;69.80;;;;;;7840921;28;20178;-51
2022/01/06 01:53:02;;;;;;;3.17;1.23;;;21.00;69.90;;;;;;7841410;28;20169;-54
2022/01/06 01:56:47;;;;;;;2.88;1.10;;;21.10;69.60;;;;;;7841371;28;20301;-52
2022/01/06 02:00:33;;;;;;;1.42;1.13;;;21.10;69.50;;;;;;7840446;28;20201;-54
2022/01/06 02:04:18;;;;;;;1.90;1.20;;;21.20;69.50;;;;;;7841026;28;20209;-55
2022/01/06 02:08:05;;;;;;;2.17;1.10;;;21.20;69.10;;;;;;7840256;28;20198;-55
2022/01/06 02:11:51;;;;;;;2.13;1.27;;;21.20;68.70;;;;;;7840981;28;20190;-58
2022/01/06 02:15:36;;;;;;;2.40;1.30;;;21.20;68.50;;;;;;7840743;28;20721;-54
2022/01/06 02:19:22;;;;;;;5.75;0.90;;;21.30;68.50;;;;;;7839914;28;20183;-55
2022/01/06 02:23:07;;;;;;;2.58;1.17;;;21.30;68.40;;;;;;7840472;28;20201;-56
2022/01/06 02:26:53;;;;;;;1.70;0.90;;;21.30;68.20;;;;;;7840407;28;20198;-54
2022/01/06 02:30:38;;;;;;;2.30;1.20;;;21.30;68.00;;;;;;7839343;28;20212;-55
2022/01/06 02:34:23;;;;;;;1.80;0.82;;;21.30;68.00;;;;;;7840448;28;20198;-55
2022/01/06 02:38:11;;;;;;;1.95;1.00;;;21.30;67.90;;;;;;7839437;28;20271;-52
2022/01/06 02:41:57;;;;;;;1.63;0.90;;;21.40;67.80;;;;;;7839998;28;20209;-53
2022/01/06 02:45:43;;;;;;;3.08;0.95;;;21.40;67.70;;;;;;7839949;28;20228;-52
2022/01/06 02:49:29;;;;;;;1.73;0.82;;;21.40;67.70;;;;;;7839060;28;20176;-51
2022/01/06 02:53:15;;;;;;;3.42;1.40;;;21.40;67.50;;;;;;7839707;28;20174;-51
2022/01/06 02:57:03;;;;;;;4.13;1.00;;;21.40;67.50;;;;;;7839308;28;20571;-52
2022/01/06 03:00:49;;;;;;;1.02;0.90;;;21.40;67.50;;;;;;7838613;28;20633;-52
2022/01/06 03:04:35;;;;;;;5.88;1.10;;;21.40;67.50;;;;;;7839304;28;20174;-52
2022/01/06 03:08:23;;;;;;;2.17;0.80;;;21.40;67.50;;;;;;7838533;28;20201;-53
2022/01/06 03:12:33;;;;;;;1.00;0.75;;;21.40;67.30;;;;;;7839152;28;20277;-54
2022/01/06 03:16:19;;;;;;;1.85;0.73;;;21.40;67.20;;;;;;7839105;28;20229;-55
2022/01/06 03:20:08;;;;;;;1.98;0.98;;;21.40;67.30;;;;;;7838099;28;20217;-53
2022/01/06 03:23:53;;;;;;;2.10;0.70;;;21.40;67.20;;;;;;7838751;28;20230;-55
2022/01/06 03:27:40;;;;;;;3.42;1.00;;;21.40;67.20;;;;;;7837797;28;20190;-55
2022/01/06 03:31:25;;;;;;;2.42;0.70;;;21.40;67.20;;;;;;7838547;28;20589;-54
2022/01/06 03:35:13;;;;;;;2.25;0.90;;;21.40;67.00;;;;;;7838361;28;20178;-52
2022/01/06 03:38:58;;;;;;;2.67;0.70;;;21.40;67.00;;;;;;7820007;28;20736;-56
2022/01/06 03:42:44;;;;;;;1.63;0.90;;;21.40;66.80;;;;;;7837618;28;20614;-52
2022/01/06 03:46:29;;;;;;;1.33;0.82;;;21.50;66.80;;;;;;7838209;28;20202;-51
2022/01/06 03:50:15;;;;;;;1.58;0.80;;;21.40;66.70;;;;;;7837630;28;20190;-56
2022/01/06 03:54:01;;;;;;;1.58;0.95;;;21.40;66.90;;;;;;7838055;28;20182;-55
2022/01/06 03:57:47;;;;;;;0.82;0.43;;;21.30;66.80;;;;;;7837097;28;20216;-56
2022/01/06 04:01:33;;;;;;;4.20;0.70;;;21.30;66.80;;;;;;7837799;28;20213;-55
2022/01/06 04:05:19;;;;;;;1.77;0.98;;;21.30;66.80;;;;;;7837882;28;20654;-56
2022/01/06 04:09:05;;;;;;;1.10;0.70;;;21.30;66.80;;;;;;7837268;28;20178;-56
2022/01/06 04:12:50;;;;;;;1.60;0.90;;;21.20;66.70;;;;;;7837788;28;20178;-54
2022/01/06 04:16:38;;;;;;;1.88;0.70;;;21.20;66.80;;;;;;7837690;28;20248;-53
2022/01/06 04:20:24;;;;;;;2.22;0.60;;;21.20;66.80;;;;;;7836929;28;20283;-56
2022/01/06 04:24:09;;;;;;;1.80;0.80;;;21.20;66.80;;;;;;7837665;28;20799;-55
2022/01/06 04:27:55;;;;;;;1.35;0.68;;;21.10;67.00;;;;;;7836887;28;20259;-56
2022/01/06 04:31:40;;;;;;;1.38;0.65;;;21.10;67.10;;;;;;7837633;28;20669;-56
2022/01/06 04:35:26;;;;;;;1.92;0.90;;;21.10;67.10;;;;;;7837615;28;20202;-55
2022/01/06 04:39:11;;;;;;;1.50;0.60;;;21.10;67.20;;;;;;7836930;28;20215;-51
2022/01/06 04:42:57;;;;;;;3.33;0.85;;;21.00;67.30;;;;;;7837055;28;20204;-55
2022/01/06 04:46:42;;;;;;;1.05;0.60;;;21.00;67.40;;;;;;7837544;28;20194;-51
2022/01/06 04:50:28;;;;;;;1.35;0.75;;;20.90;67.30;;;;;;7837124;28;20209;-51
2022/01/06 04:54:13;;;;;;;0.73;0.52;;;20.90;67.40;;;;;;7841539;28;20189;-54
2022/01/06 04:57:59;;;;;;;1.88;0.90;;;20.90;67.40;;;;;;7825431;28;20645;-54
2022/01/06 05:01:44;;;;;;;2.38;0.98;;;20.80;67.40;;;;;;7843393;28;20202;-51
2022/01/06 05:05:30;;;;;;;2.25;0.70;;;20.80;67.50;;;;;;7842925;28;20205;-52
2022/01/06 05:09:15;;;;;;;1.25;0.70;;;20.80;67.50;;;;;;7842070;28;20699;-52
2022/01/06 05:13:01;;;;;;;2.58;0.82;;;20.70;67.60;;;;;;7842644;28;20170;-51
2022/01/06 05:16:47;;;;;;;1.35;0.80;;;20.70;67.70;;;;;;7842465;28;20540;-52
2022/01/06 05:20:32;;;;;;;1.83;0.80;;;20.70;67.70;;;;;;7841519;28;20194;-55
2022/01/06 05:24:19;;;;;;;7.88;1.30;;;20.70;68.10;;;;;;7842290;28;20206;-53
2022/01/06 05:28:04;;;;;;;8.32;1.30;;;20.70;68.40;;;;;;7841470;28;20702;-56
2022/01/06 05:31:50;;;;;;;1.20;0.60;;;20.70;68.10;;;;;;7842139;28;20794;-55
2022/01/06 05:35:36;;;;;;;5.18;1.20;;;20.60;68.30;;;;;;7841957;28;20233;-54
2022/01/06 05:39:21;;;;;;;12.80;1.50;;;20.60;68.20;;;;;;7836680;28;20193;-55
2022/01/06 05:43:07;;;;;;;11.82;2.03;;;20.60;69.10;;;;;;7841167;28;20563;-56
2022/01/06 05:46:52;;;;;;;12.07;2.03;;;20.60;69.80;;;;;;7839500;28;20212;-55
2022/01/06 05:50:38;;;;;;;22.00;2.80;;;20.60;68.50;;;;;;7840322;28;20182;-52
2022/01/06 05:54:23;;;;;;;14.63;2.70;;;20.60;68.60;;;;;;7840445;28;20272;-54
2022/01/06 05:58:09;;;;;;;8.82;1.95;;;20.60;68.30;;;;;;7840221;28;20220;-55
2022/01/06 06:01:55;;;;;;;14.80;2.13;;;20.50;68.30;;;;;;7840132;28;20202;-54
2022/01/06 06:05:41;;;;;;;14.57;2.50;;;20.50;68.20;;;;;;7839488;28;20221;-55
2022/01/06 06:09:27;;;;;;;17.02;2.10;;;20.50;68.10;;;;;;7840078;28;20174;-57
2022/01/06 06:13:12;;;;;;;16.45;2.10;;;20.50;68.00;;;;;;7840045;28;20178;-55
2022/01/06 06:16:58;;;;;;;19.42;2.28;;;20.50;67.80;;;;;;7839707;28;20582;-54
2022/01/06 06:20:43;;;;;;;23.05;2.17;;;20.40;67.90;;;;;;7836773;28;20220;-56
2022/01/06 06:24:29;;;;;;;18.30;1.52;;;20.40;68.10;;;;;;7839622;28;20178;-56
2022/01/06 06:28:15;;;;;;;14.25;2.55;;;20.40;68.40;;;;;;7839298;28;20205;-57
2022/01/06 06:32:00;;;;;;;15.57;1.63;;;20.40;68.70;;;;;;7839720;28;20781;-55
2022/01/06 06:35:46;;;;;;;7.78;1.65;;;20.40;68.60;;;;;;7839306;28;20198;-56
2022/01/06 06:39:31;;;;;;;11.73;1.60;;;20.40;68.70;;;;;;7840139;28;20178;-55
2022/01/06 06:43:17;;;;;;;18.95;2.38;;;20.40;68.40;;;;;;7838950;28;20229;-55
2022/01/06 06:47:02;;;;;;;12.35;1.77;;;20.40;68.40;;;;;;7840053;28;20800;-55
2022/01/06 06:50:48;;;;;;;7.88;1.85;;;20.40;68.40;;;;;;7839802;28;20201;-51
2022/01/06 06:54:33;;;;;;;10.73;1.80;;;20.40;68.40;;;;;;7839859;28;20181;-52
2022/01/06 06:58:19;;;;;;;7.78;1.60;;;20.40;68.40;;;;;;7839221;28;20240;-53
2022/01/06 07:02:04;;;;;;;9.10;1.27;;;20.40;68.40;;;;;;7839649;28;20241;-56
2022/01/06 07:05:50;;;;;;;13.43;1.83;;;20.40;68.20;;;;;;7839443;28;20198;-51
2022/01/06 07:09:36;;;;;;;4.03;1.30;;;20.40;68.00;;;;;;7838988;28;20590;-55
2022/01/06 07:13:21;;;;;;;8.70;1.38;;;20.40;68.10;;;;;;7839264;28;20186;-55
2022/01/06 07:17:06;;;;;;;8.80;1.60;;;20.40;68.00;;;;;;7838190;28;20193;-53
2022/01/06 07:20:52;;;;;;;9.15;1.90;;;20.40;68.10;;;;;;7838596;28;20209;-55
2022/01/06 07:24:37;;;;;;;5.18;1.60;;;20.40;67.90;;;;;;7838787;28;20182;-53
2022/01/06 07:28:23;;;;;;;6.68;1.42;;;20.40;67.80;;;;;;7838508;28;20218;-56
2022/01/06 07:32:08;;;;;;;5.18;1.52;;;20.40;67.90;;;;;;7838790;28;20257;-53
2022/01/06 07:35:54;;;;;;;11.07;1.50;;;20.40;67.90;;;;;;7838402;28;20593;-53
2022/01/06 07:39:39;;;;;;;12.40;1.90;;;20.40;68.20;;;;;;7838375;28;20220;-55
2022/01/06 07:43:25;;;;;;;5.65;1.45;;;20.40;68.30;;;;;;7838472;28;20235;-53
2022/01/06 07:47:12;;;;;;;3.13;1.08;;;20.40;68.20;;;;;;7838175;28;20198;-55
2022/01/06 07:50:57;;;;;;;5.47;1.30;;;20.40;68.10;;;;;;7838077;28;20256;-55
2022/01/06 07:54:43;;;;;;;4.55;1.42;;;20.40;68.30;;;;;;7838376;28;20182;-56
2022/01/06 07:58:29;;;;;;;4.38;1.33;;;20.40;68.00;;;;;;7837729;28;20213;-51
2022/01/06 08:02:14;;;;;;;9.35;1.50;;;20.40;68.00;;;;;;7838008;28;20410;-54
2022/01/06 08:06:00;;;;;;;1.20;0.80;;;20.40;68.00;;;;;;7838006;28;20743;-57
2022/01/06 08:09:46;;;;;;;7.95;1.40;;;20.40;67.90;;;;;;7837814;28;20178;-55
2022/01/06 08:13:32;;;;;;;3.90;1.00;;;20.40;67.80;;;;;;7837868;28;20181;-55
2022/01/06 08:17:18;;;;;;;6.78;1.63;;;20.40;68.00;;;;;;7838063;28;20190;-56
2022/01/06 08:21:03;;;;;;;3.83;1.42;;;20.40;67.80;;;;;;7837590;28;20229;-55
2022/01/06 08:24:51;;;;;;;4.80;1.58;;;20.40;67.50;;;;;;7837732;28;20170;-55
2022/01/06 08:28:37;;;;;;;4.30;1.60;;;20.40;67.20;;;;;;7840510;28;20682;-56
2022/01/06 08:32:23;;;;;;;4.22;1.85;;;20.40;67.20;;;;;;7844057;28;20600;-56
2022/01/06 08:36:08;;;;;;;6.63;1.88;;;20.40;66.90;;;;;;7843957;28;20194;-55
2022/01/06 08:39:54;;;;;;;3.92;1.92;;;20.40;66.90;;;;;;7843481;28;20197;-56
2022/01/06 08:43:39;;;;;;;5.20;2.40;;;20.40;66.40;;;;;;7844252;28;20208;-55
2022/01/06 08:47:25;;;;;;;4.53;2.13;;;20.50;66.20;;;;;;7844025;28;20205;-55
2022/01/06 08:51:10;;;;;;;6.47;2.50;;;20.40;66.20;;;;;;7844138;28;20240;-52
2022/01/06 08:54:56;;;;;;;9.60;3.15;;;20.50;66.10;;;;;;7843825;28;20178;-53
2022/01/06 08:58:41;;;;;;;4.47;2.60;;;20.50;66.00;;;;;;7843135;28;20217;-55
2022/01/06 09:02:27;;;;;;;10.02;2.53;;;20.60;66.10;;;;;;7843043;28;20710;-53
2022/01/06 09:06:13;;;;;;;8.25;2.10;;;20.60;66.00;;;;;;7843037;28;20182;-53
2022/01/06 09:09:58;;;;;;;7.68;2.92;;;20.70;66.30;;;;;;7842585;28;20276;-54
2022/01/06 09:13:44;;;;;;;7.47;2.08;;;20.80;66.40;;;;;;7843320;28;20182;-54
2022/01/06 09:17:35;;;;;;;6.95;1.90;;;20.80;66.40;;;;;;7842293;28;20244;-53
2022/01/06 09:21:22;;;;;;;7.85;1.90;;;20.90;66.80;;;;;;7842649;28;20213;-54
2022/01/06 09:25:09;;;;;;;8.52;2.20;;;21.10;66.60;;;;;;7842372;28;20640;-55
2022/01/06 09:28:54;;;;;;;8.18;1.85;;;21.10;67.40;;;;;;7841923;28;20540;-53
2022/01/06 09:32:40;;;;;;;5.22;1.63;;;21.20;67.00;;;;;;7842261;28;20178;-55
2022/01/06 09:36:27;;;;;;;5.18;1.55;;;21.30;67.40;;;;;;7842012;28;20190;-56
2022/01/06 09:40:13;;;;;;;6.32;1.25;;;21.40;67.60;;;;;;7840445;28;20237;-53
2022/01/06 09:44:02;;;;;;;4.90;1.58;;;21.40;67.00;;;;;;7841873;28;20177;-56
2022/01/06 09:47:49;;;;;;;6.35;1.35;;;21.50;67.50;;;;;;7841527;28;20745;-54
2022/01/06 09:51:34;;;;;;;5.80;1.33;;;21.40;68.10;;;;;;7841722;28;20182;-53
2022/01/06 09:55:21;;;;;;;8.55;1.48;;;21.60;68.90;;;;;;7841235;28;20239;-55
2022/01/06 09:59:07;;;;;;;6.68;1.40;;;21.50;66.70;;;;;;7841269;28;20181;-55
2022/01/06 10:02:55;;;;;;;11.73;1.27;;;21.50;66.90;;;;;;7841264;28;20206;-53
2022/01/06 10:06:40;;;;;;;5.13;1.08;;;21.50;67.40;;;;;;7841047;28;20202;-55
2022/01/06 10:10:26;;;;;;;5.38;1.35;;;21.50;67.50;;;;;;7840702;28;20231;-56
2022/01/06 10:14:19;;;;;;;4.65;1.50;;;21.50;66.60;;;;;;7840946;28;20201;-56
2022/01/06 10:18:12;;;;;;;5.82;1.25;;;21.50;67.00;;;;;;7840499;28;20211;-55
2022/01/06 10:21:58;;;;;;;7.25;1.55;;;21.50;66.70;;;;;;7840781;28;20300;-56
2022/01/06 10:25:49;;;;;;;7.43;1.30;;;21.60;67.40;;;;;;7840609;28;20204;-55
2022/01/06 10:29:37;;;;;;;5.00;1.30;;;21.60;67.10;;;;;;7840458;28;20182;-55
2022/01/06 10:33:35;;;;;;;5.25;1.55;;;21.60;67.00;;;;;;7840373;28;20719;-55
2022/01/06 10:37:34;;;;;;;2.88;1.30;;;21.60;66.80;;;;;;7840314;28;20288;-56
2022/01/06 10:41:19;;;;;;;3.85;1.50;;;21.60;67.00;;;;;;7840125;28;20292;-57
2022/01/06 10:45:11;;;;;;;6.55;1.50;;;21.60;66.40;;;;;;7839922;28;20840;-53
2022/01/06 10:49:06;;;;;;;6.57;1.83;;;21.60;66.40;;;;;;7839930;28;20182;-58
2022/01/06 10:53:00;;;;;;;3.58;1.13;;;21.50;66.40;;;;;;7839703;28;20177;-56
2022/01/06 10:57:17;;;;;;;7.05;1.40;;;21.50;66.00;;;;;;7839885;28;20245;-54
2022/01/06 11:01:03;;;;;;;5.32;1.25;;;21.50;66.10;;;;;;7805090;28;20237;-53
2022/01/06 11:04:49;;;;;;;5.10;1.48;;;21.50;66.20;;;;;;7805560;28;20198;-57
2022/01/06 11:08:39;;;;;;;5.72;1.35;;;21.50;66.80;;;;;;7804358;28;20210;-56
2022/01/06 11:12:29;;;;;;;4.85;1.10;;;21.50;66.20;;;;;;7804825;28;20284;-55
2022/01/06 11:16:16;;;;;;;4.00;1.45;;;21.40;66.10;;;;;;7804553;28;20206;-52
2022/01/06 11:20:03;;;;;;;2.65;1.30;;;21.40;66.30;;;;;;7803841;28;20179;-53
2022/01/06 11:23:59;;;;;;;4.07;1.45;;;21.40;66.30;;;;;;7804222;28;20357;-51
2022/01/06 11:27:45;;;;;;;4.65;1.90;;;21.40;66.40;;;;;;7803882;28;20198;-52
2022/01/06 11:31:40;;;;;;;3.72;1.85;;;21.30;66.20;;;;;;7803899;28;20194;-53
2022/01/06 11:35:26;;;;;;;4.40;2.13;;;21.40;66.10;;;;;;7808884;28;20284;-54
2022/01/06 11:39:26;;;;;;;3.65;1.90;;;21.40;66.40;;;;;;7838375;28;20651;-54
2022/01/06 11:43:12;;;;;;;7.30;1.95;;;21.40;67.00;;;;;;7838525;28;20213;-51
2022/01/06 11:47:03;;;;;;;6.35;1.95;;;21.50;67.00;;;;;;7838182;28;20190;-53
2022/01/06 11:50:51;;;;;;;5.43;1.95;;;21.50;67.80;;;;;;7838099;28;20208;-54
2022/01/06 11:54:50;;;;;;;5.00;1.30;;;21.60;67.40;;;;;;7838275;28;20170;-52
2022/01/06 11:58:35;;;;;;;3.67;1.38;;;21.60;67.80;;;;;;7837667;28;20213;-52
2022/01/06 12:02:22;;;;;;;4.90;1.33;;;21.70;67.30;;;;;;7837557;28;20330;-53
2022/01/06 12:06:20;;;;;;;6.80;2.13;;;21.70;67.40;;;;;;7838048;28;20304;-54
2022/01/06 12:10:08;;;;;;;3.03;1.33;;;21.80;68.20;;;;;;7837578;28;20651;-55
2022/01/06 12:13:56;;;;;;;4.55;1.15;;;21.80;67.60;;;;;;7838027;28;20531;-54
2022/01/06 12:17:47;;;;;;;7.05;1.65;;;21.80;67.90;;;;;;7837697;28;20181;-53
2022/01/06 12:21:32;;;;;;;5.72;1.88;;;21.80;67.40;;;;;;7837594;28;20208;-55
2022/01/06 12:25:26;;;;;;;4.13;1.77;;;21.80;66.60;;;;;;7837616;28;20225;-56
2022/01/06 12:29:24;;;;;;;10.90;2.00;;;21.80;66.40;;;;;;7837703;28;20171;-53
2022/01/06 12:33:10;;;;;;;4.68;2.13;;;21.70;66.20;;;;;;7837804;28;20666;-54
2022/01/06 12:36:55;;;;;;;6.22;1.67;;;21.80;66.00;;;;;;7837832;28;20544;-56
2022/01/06 12:40:43;;;;;;;8.32;2.10;;;21.70;66.80;;;;;;7837822;28;20201;-57
2022/01/06 12:44:29;;;;;;;7.28;2.10;;;21.60;65.40;;;;;;7837770;28;20208;-57
2022/01/06 12:48:14;;;;;;;10.75;2.10;;;21.60;65.50;;;;;;7836989;28;20376;-57
2022/01/06 12:52:01;;;;;;;10.65;2.28;;;21.60;65.60;;;;;;7837435;28;20197;-57
2022/01/06 12:55:47;;;;;;;7.63;1.90;;;21.60;65.80;;;;;;7837370;28;20218;-57
2022/01/06 12:59:36;;;;;;;5.88;2.05;;;21.60;65.50;;;;;;7837173;28;20273;-56
2022/01/06 13:03:33;;;;;;;15.32;2.33;;;21.50;65.50;;;;;;7837125;28;20728;-55
2022/01/06 13:07:19;;;;;;;8.65;2.45;;;21.50;65.50;;;;;;7837030;28;20197;-55
2022/01/06 13:11:07;;;;;;;4.93;2.15;;;21.50;65.40;;;;;;7836968;28;20189;-54
2022/01/06 13:14:54;;;;;;;7.68;2.25;;;21.50;65.30;;;;;;7839981;28;20186;-56
2022/01/06 13:18:39;;;;;;;4.75;2.50;;;21.50;66.30;;;;;;7842494;28;20277;-55
2022/01/06 13:26:54;;;;;;;3.83;2.22;;;21.50;65.50;;;;;;7842471;28;20248;-55
2022/01/06 13:30:47;;;;;;;5.90;2.08;;;21.60;66.20;;;;;;7842409;28;20178;-57
2022/01/06 13:34:34;;;;;;;7.28;2.20;;;21.60;67.20;;;;;;7842088;28;20174;-56
2022/01/06 13:38:22;;;;;;;8.57;2.50;;;21.60;66.50;;;;;;7841489;28;20198;-56
2022/01/06 13:42:10;;;;;;;8.45;2.45;;;21.60;66.40;;;;;;7841974;28;20979;-53
2022/01/06 13:46:14;;;;;;;8.00;2.95;;;21.60;66.70;;;;;;7841854;28;20190;-54
2022/01/06 13:54:10;;;;;;;7.50;3.35;;;21.70;67.10;;;;;;7842651;28;20225;-57
2022/01/06 13:57:56;;;;;;;7.70;3.83;;;21.70;67.10;;;;;;7836737;28;20221;-54
2022/01/06 14:01:44;;;;;;;4.45;2.92;;;21.70;63.80;;;;;;7842010;28;20206;-54
2022/01/06 14:05:30;;;;;;;7.50;3.10;;;21.60;65.70;;;;;;7841206;28;20673;-55
2022/01/06 14:09:16;;;;;;;8.45;2.65;;;21.60;65.90;;;;;;7840991;28;20541;-56
2022/01/06 14:13:02;;;;;;;8.30;3.17;;;21.60;66.30;;;;;;7841219;28;20178;-56
2022/01/06 14:16:47;;;;;;;4.97;2.70;;;21.60;66.10;;;;;;7841332;28;20201;-57
2022/01/06 14:20:33;;;;;;;6.53;3.08;;;21.60;66.10;;;;;;7840605;28;20201;-55
2022/01/06 14:24:18;;;;;;;6.72;2.63;;;21.60;65.80;;;;;;7840699;28;20181;-56
2022/01/06 14:28:06;;;;;;;7.88;2.75;;;21.60;65.70;;;;;;7840192;28;20206;-55
2022/01/06 14:31:51;;;;;;;7.13;2.63;;;21.60;66.40;;;;;;7840924;28;20563;-53
2022/01/06 14:35:37;;;;;;;8.70;2.60;;;21.60;65.80;;;;;;7840429;28;20248;-54
2022/01/06 14:39:22;;;;;;;4.75;2.22;;;21.60;65.80;;;;;;7840040;28;20202;-56
2022/01/06 14:43:08;;;;;;;8.77;2.20;;;21.60;65.70;;;;;;7840057;28;20247;-56
2022/01/06 14:46:54;;;;;;;4.88;2.53;;;21.50;65.70;;;;;;7840566;28;20273;-56
2022/01/06 14:50:39;;;;;;;6.65;2.00;;;21.60;65.50;;;;;;7839838;28;20269;-57
2022/01/06 14:54:25;;;;;;;4.55;1.98;;;21.50;65.40;;;;;;7839820;28;20189;-56
2022/01/06 14:58:10;;;;;;;3.85;1.90;;;21.50;65.50;;;;;;7839438;28;20217;-56
2022/01/06 15:01:57;;;;;;;5.40;2.03;;;21.40;65.50;;;;;;7839521;28;20249;-57
2022/01/06 15:05:42;;;;;;;5.80;2.80;;;21.40;65.70;;;;;;7839569;28;20198;-55
2022/01/06 15:09:28;;;;;;;4.03;2.10;;;21.40;65.80;;;;;;7839202;28;20181;-52
2022/01/06 15:13:14;;;;;;;3.38;1.90;;;21.30;65.90;;;;;;7839250;28;20599;-54
2022/01/06 15:16:59;;;;;;;4.63;2.15;;;21.30;66.00;;;;;;7839409;28;20351;-54
2022/01/06 15:20:45;;;;;;;3.55;1.85;;;21.30;66.00;;;;;;7838799;28;20206;-55
2022/01/06 15:24:31;;;;;;;3.17;1.90;;;21.30;66.00;;;;;;7839051;28;20202;-55
2022/01/06 15:28:17;;;;;;;4.10;2.00;;;21.30;66.00;;;;;;7838584;28;20654;-53
2022/01/06 15:32:03;;;;;;;3.75;2.28;;;21.30;66.10;;;;;;7838774;28;20647;-52
2022/01/06 15:35:50;;;;;;;3.17;2.03;;;21.30;66.00;;;;;;7838668;28;20194;-52
2022/01/06 15:39:36;;;;;;;5.13;2.17;;;21.30;65.90;;;;;;7837806;28;20184;-56
2022/01/06 15:43:21;;;;;;;4.78;1.70;;;21.30;65.70;;;;;;7838632;28;20210;-54
2022/01/06 15:47:07;;;;;;;5.20;2.22;;;21.40;65.60;;;;;;7838937;28;20253;-53
2022/01/06 15:50:52;;;;;;;4.60;2.15;;;21.40;65.60;;;;;;7838260;28;20188;-52
2022/01/06 15:54:38;;;;;;;7.32;2.25;;;21.40;66.40;;;;;;7838440;28;20174;-55
2022/01/06 15:58:23;;;;;;;3.05;1.67;;;21.50;65.80;;;;;;7826651;28;20594;-54
2022/01/06 16:06:13;;;;;;;4.72;1.85;;;21.60;65.70;;;;;;7830262;28;20202;-55
2022/01/06 16:09:59;;;;;;;7.22;2.17;;;21.60;66.00;;;;;;7837749;28;20651;-57
2022/01/06 16:13:45;;;;;;;10.45;2.53;;;21.60;65.50;;;;;;7838199;28;20185;-53
2022/01/06 16:17:31;;;;;;;4.50;2.38;;;21.60;65.40;;;;;;7837682;28;20198;-54
2022/01/06 16:21:16;;;;;;;8.45;2.70;;;21.60;65.20;;;;;;7838159;28;20204;-54
2022/01/06 16:25:05;;;;;;;9.75;2.58;;;21.70;65.30;;;;;;7837828;28;20643;-52
2022/01/06 16:28:50;;;;;;;5.97;3.10;;;21.70;65.10;;;;;;7837577;28;20211;-56
2022/01/06 16:32:36;;;;;;;7.47;2.88;;;21.70;65.10;;;;;;7837653;28;20651;-56
2022/01/06 16:36:21;;;;;;;3.88;2.65;;;21.70;65.00;;;;;;7837503;28;20198;-55
2022/01/06 16:40:07;;;;;;;10.00;3.03;;;21.70;65.00;;;;;;7837253;28;20197;-56
2022/01/06 16:43:53;;;;;;;5.93;3.00;;;21.80;65.10;;;;;;7837458;28;20177;-57
2022/01/06 16:47:38;;;;;;;5.70;2.83;;;21.90;65.20;;;;;;7837075;28;20194;-56
2022/01/06 16:51:24;;;;;;;6.30;3.30;;;22.10;65.20;;;;;;7843152;28;20182;-56
2022/01/06 16:55:10;;;;;;;3.70;2.20;;;22.20;65.40;;;;;;7842696;28;20601;-55
2022/01/06 16:58:56;;;;;;;4.43;2.03;;;22.40;66.10;;;;;;7843041;28;20174;-57
2022/01/06 17:02:41;;;;;;;7.15;2.53;;;22.60;66.20;;;;;;7843024;28;20683;-58
2022/01/06 17:06:27;;;;;;;8.60;1.95;;;22.70;65.90;;;;;;7843058;28;20194;-56
2022/01/06 17:10:13;;;;;;;3.95;2.22;;;22.90;66.70;;;;;;7842816;28;20178;-55
2022/01/06 17:13:59;;;;;;;4.75;2.15;;;23.00;66.60;;;;;;7842967;28;20229;-55
2022/01/06 17:17:44;;;;;;;31.75;8.82;;;23.10;65.60;;;;;;7842575;28;20736;-56
2022/01/06 17:21:30;;;;;;;39.60;13.98;;;23.10;64.10;;;;;;7842629;28;20604;-55
2022/01/06 17:25:15;;;;;;;24.20;12.50;;;22.80;61.10;;;;;;7842528;28;20181;-54
2022/01/06 17:29:01;;;;;;;65.25;21.35;;;22.60;58.70;;;;;;7842253;28;20166;-54
2022/01/06 17:32:47;;;;;;;32.10;11.98;;;22.40;61.60;;;;;;7842503;28;20175;-55
2022/01/06 17:36:32;;;;;;;60.40;20.65;;;22.40;64.00;;;;;;7813291;28;20203;-53
2022/01/06 17:40:18;;;;;;;39.03;12.70;;;22.60;64.00;;;;;;7811085;28;20186;-52
2022/01/06 17:44:04;;;;;;;40.00;14.65;;;22.80;64.20;;;;;;7811378;28;20232;-56
2022/01/06 17:47:50;;;;;;;40.05;15.38;;;23.00;64.30;;;;;;7811443;28;20214;-56
2022/01/06 17:51:35;;;;;;;47.50;19.38;;;23.00;64.10;;;;;;7841920;28;20269;-54
2022/01/06 17:55:21;;;;;;;31.73;11.07;;;23.10;64.10;;;;;;7841653;28;20210;-53
2022/01/06 17:59:06;;;;;;;63.67;20.65;;;23.20;64.90;;;;;;7841289;28;20670;-55
2022/01/06 18:02:52;;;;;;;38.35;12.10;;;23.20;64.00;;;;;;7840511;28;20210;-51
2022/01/06 18:06:40;;;;;;;34.15;12.05;;;23.30;65.00;;;;;;7841325;28;20198;-52
2022/01/06 18:14:30;;;;;;;61.75;22.25;;;23.20;64.60;;;;;;7841185;28;20645;-56
2022/01/06 18:18:17;;;;;;;73.68;28.05;;;23.20;63.90;;;;;;7840815;28;20627;-52
2022/01/06 18:22:06;;;;;;;50.03;19.40;;;23.20;63.30;;;;;;7840927;28;20198;-56
2022/01/06 18:25:52;;;;;;;56.42;21.90;;;23.20;64.70;;;;;;7840759;28;20620;-57
2022/01/06 18:29:37;;;;;;;50.97;21.02;;;23.20;64.50;;;;;;7840347;28;20865;-55
2022/01/06 18:33:23;;;;;;;48.30;20.08;;;23.20;64.60;;;;;;7840581;28;20496;-53
2022/01/06 18:37:09;;;;;;;46.03;16.20;;;23.30;64.40;;;;;;7840509;28;20201;-53
2022/01/06 18:40:54;;;;;;;33.90;12.10;;;23.30;65.20;;;;;;7840010;28;20194;-57
2022/01/06 18:44:40;;;;;;;25.77;11.30;;;23.30;65.80;;;;;;7840205;28;20189;-55
2022/01/06 18:48:26;;;;;;;31.38;11.65;;;23.30;66.30;;;;;;7839709;28;20198;-53
2022/01/06 18:52:11;;;;;;;25.77;9.80;;;23.30;66.60;;;;;;7839983;28;20803;-55
2022/01/06 18:55:57;;;;;;;24.30;9.45;;;23.30;67.10;;;;;;7821694;28;20209;-54
2022/01/06 18:59:43;;;;;;;21.90;9.00;;;23.30;67.20;;;;;;7816715;28;20637;-54
2022/01/06 19:03:28;;;;;;;23.58;9.02;;;23.30;68.50;;;;;;7808632;28;20213;-56
2022/01/06 19:07:15;;;;;;;22.10;8.32;;;23.30;67.80;;;;;;7812485;28;20226;-57
2022/01/06 19:11:00;;;;;;;17.08;7.93;;;23.20;68.00;;;;;;7807985;28;20216;-55
2022/01/06 19:14:46;;;;;;;23.00;8.65;;;23.20;68.10;;;;;;7831966;28;20178;-56
2022/01/06 19:18:31;;;;;;;25.88;10.48;;;23.10;68.40;;;;;;7836988;28;20198;-52
2022/01/06 19:22:17;;;;;;;29.13;10.02;;;23.10;68.80;;;;;;7837514;28;20867;-52
2022/01/06 19:26:03;;;;;;;27.17;9.60;;;23.00;69.40;;;;;;7837278;28;20202;-53
2022/01/06 19:29:49;;;;;;;23.00;9.05;;;22.90;69.40;;;;;;7836854;28;20199;-52
2022/01/06 19:33:34;;;;;;;23.55;9.43;;;22.90;69.60;;;;;;7837426;28;20218;-52
2022/01/06 19:37:19;;;;;;;23.77;8.23;;;22.90;70.10;;;;;;7837409;28;20289;-54
2022/01/06 19:41:05;;;;;;;28.95;8.40;;;22.90;69.90;;;;;;7837157;28;20251;-55
2022/01/06 19:44:51;;;;;;;21.02;8.15;;;23.00;70.10;;;;;;7837704;28;20188;-53
2022/01/06 19:48:36;;;;;;;19.20;7.10;;;23.00;70.10;;;;;;7837049;28;20190;-53
2022/01/06 19:52:22;;;;;;;28.35;7.07;;;23.00;70.20;;;;;;7837541;28;20178;-53
2022/01/06 19:56:07;;;;;;;31.17;6.97;;;23.10;71.60;;;;;;7837546;28;20220;-55
2022/01/06 19:59:54;;;;;;;17.27;6.88;;;23.20;72.70;;;;;;7836476;28;20184;-53